sensor_id;sensor_type;location;lat;lon;timestamp;P1;P2;P0
70436;PMS5003;57877;39.750;-104.894;2022-12-18T00:00:51;1;1;
70436;PMS5003;57877;39.750;-104.894;2022-12-18T00:03:16;1;0;
70436;PMS5003;57877;39.750;-104.894;2022-12-18T00:08:06;1;1;
70436;PMS5003;57877;39.750;-104.894;2022-12-18T00:10:31;2;2;
70436;PMS5003;57877;39.750;-104.894;2022-12-18T00:12:56;3;2;
70436;PMS5003;57877;39.750;-104.894;2022-12-18T00:15:21;1;1;
70436;PMS5003;57877;39.750;-104.894;2022-12-18T00:17:47;2;1;
70436;PMS5003;57877;39.750;-104.894;2022-12-18T00:20:12;1;1;
70436;PMS5003;57877;39.750;-104.894;2022-12-18T00:22:37;2;1;
70436;PMS5003;57877;39.750;-104.894;2022-12-18T00:25:02;1;0;
70436;PMS5003;57877;39.750;-104.894;2022-12-18T00:27:27;7;7;
70436;PMS5003;57877;39.750;-104.894;2022-12-18T00:29:52;3;3;
70436;PMS5003;57877;39.750;-104.894;2022-12-18T00:32:17;5;5;
70436;PMS5003;57877;39.750;-104.894;2022-12-18T00:34:43;2;2;
70436;PMS5003;57877;39.750;-104.894;2022-12-18T00:37:08;0;0;
70436;PMS5003;57877;39.750;-104.894;2022-12-18T00:39:33;1;1;
70436;PMS5003;57877;39.750;-104.894;2022-12-18T00:41:58;0;0;
70436;PMS5003;57877;39.750;-104.894;2022-12-18T00:44:23;0;0;
70436;PMS5003;57877;39.750;-104.894;2022-12-18T00:46:49;0;0;
70436;PMS5003;57877;39.750;-104.894;2022-12-18T00:49:14;0;0;
70436;PMS5003;57877;39.750;-104.894;2022-12-18T00:51:39;0;0;
70436;PMS5003;57877;39.750;-104.894;2022-12-18T00:54:04;0;0;
70436;PMS5003;57877;39.750;-104.894;2022-12-18T00:56:29;0;0;
70436;PMS5003;57877;39.750;-104.894;2022-12-18T00:58:54;0;0;
70436;PMS5003;57877;39.750;-104.894;2022-12-18T01:01:20;0;0;
70436;PMS5003;57877;39.750;-104.894;2022-12-18T01:03:45;0;0;
70436;PMS5003;57877;39.750;-104.894;2022-12-18T01:06:11;1;0;
70436;PMS5003;57877;39.750;-104.894;2022-12-18T01:08:35;0;0;
70436;PMS5003;57877;39.750;-104.894;2022-12-18T01:11:00;0;0;
70436;PMS5003;57877;39.750;-104.894;2022-12-18T01:13:25;0;0;
70436;PMS5003;57877;39.750;-104.894;2022-12-18T01:15:51;0;0;
70436;PMS5003;57877;39.750;-104.894;2022-12-18T01:18:16;0;0;
70436;PMS5003;57877;39.750;-104.894;2022-12-18T01:20:41;0;0;
70436;PMS5003;57877;39.750;-104.894;2022-12-18T01:23:06;0;0;
70436;PMS5003;57877;39.750;-104.894;2022-12-18T01:25:31;0;0;
70436;PMS5003;57877;39.750;-104.894;2022-12-18T01:27:56;0;0;
70436;PMS5003;57877;39.750;-104.894;2022-12-18T01:30:22;0;0;
70436;PMS5003;57877;39.750;-104.894;2022-12-18T01:32:47;0;0;
70436;PMS5003;57877;39.750;-104.894;2022-12-18T01:35:12;0;0;
70436;PMS5003;57877;39.750;-104.894;2022-12-18T01:37:37;0;0;
70436;PMS5003;57877;39.750;-104.894;2022-12-18T01:40:03;0;0;
70436;PMS5003;57877;39.750;-104.894;2022-12-18T01:42:28;0;0;
70436;PMS5003;57877;39.750;-104.894;2022-12-18T01:44:55;0;0;
70436;PMS5003;57877;39.750;-104.894;2022-12-18T01:47:19;0;0;
70436;PMS5003;57877;39.750;-104.894;2022-12-18T01:49:43;0;0;
70436;PMS5003;57877;39.750;-104.894;2022-12-18T01:52:08;0;0;
70436;PMS5003;57877;39.750;-104.894;2022-12-18T01:54:34;0;0;
70436;PMS5003;57877;39.750;-104.894;2022-12-18T01:56:58;0;0;
70436;PMS5003;57877;39.750;-104.894;2022-12-18T01:59:29;0;0;
70436;PMS5003;57877;39.750;-104.894;2022-12-18T02:01:49;0;0;
70436;PMS5003;57877;39.750;-104.894;2022-12-18T02:04:18;0;0;
70436;PMS5003;57877;39.750;-104.894;2022-12-18T02:06:39;0;0;
70436;PMS5003;57877;39.750;-104.894;2022-12-18T02:09:06;0;0;
70436;PMS5003;57877;39.750;-104.894;2022-12-18T02:11:33;0;0;
70436;PMS5003;57877;39.750;-104.894;2022-12-18T02:13:56;0;0;
70436;PMS5003;57877;39.750;-104.894;2022-12-18T02:16:21;0;0;
70436;PMS5003;57877;39.750;-104.894;2022-12-18T02:18:47;0;0;
70436;PMS5003;57877;39.750;-104.894;2022-12-18T02:21:12;0;0;
70436;PMS5003;57877;39.750;-104.894;2022-12-18T02:23:40;0;0;
70436;PMS5003;57877;39.750;-104.894;2022-12-18T02:26:04;0;0;
70436;PMS5003;57877;39.750;-104.894;2022-12-18T02:28:27;1;0;
70436;PMS5003;57877;39.750;-104.894;2022-12-18T02:30:51;0;0;
70436;PMS5003;57877;39.750;-104.894;2022-12-18T02:33:16;0;0;
70436;PMS5003;57877;39.750;-104.894;2022-12-18T02:35:41;0;0;
70436;PMS5003;57877;39.750;-104.894;2022-12-18T02:38:06;0;0;
70436;PMS5003;57877;39.750;-104.894;2022-12-18T02:40:32;0;0;
70436;PMS5003;57877;39.750;-104.894;2022-12-18T02:45:22;1;1;
70436;PMS5003;57877;39.750;-104.894;2022-12-18T02:47:48;0;0;
70436;PMS5003;57877;39.750;-104.894;2022-12-18T02:50:13;0;0;
70436;PMS5003;57877;39.750;-104.894;2022-12-18T02:52:41;0;0;
70436;PMS5003;57877;39.750;-104.894;2022-12-18T02:55:13;1;0;
70436;PMS5003;57877;39.750;-104.894;2022-12-18T02:57:32;1;1;
70436;PMS5003;57877;39.750;-104.894;2022-12-18T02:59:55;0;0;
70436;PMS5003;57877;39.750;-104.894;2022-12-18T03:02:20;0;0;
70436;PMS5003;57877;39.750;-104.894;2022-12-18T03:04:45;0;0;
70436;PMS5003;57877;39.750;-104.894;2022-12-18T03:07:11;0;0;
70436;PMS5003;57877;39.750;-104.894;2022-12-18T03:09:35;0;0;
70436;PMS5003;57877;39.750;-104.894;2022-12-18T03:12:01;0;0;
70436;PMS5003;57877;39.750;-104.894;2022-12-18T03:14:25;0;0;
70436;PMS5003;57877;39.750;-104.894;2022-12-18T03:16:51;0;0;
70436;PMS5003;57877;39.750;-104.894;2022-12-18T03:19:16;2;0;
70436;PMS5003;57877;39.750;-104.894;2022-12-18T03:21:42;1;1;
70436;PMS5003;57877;39.750;-104.894;2022-12-18T03:24:06;0;0;
70436;PMS5003;57877;39.750;-104.894;2022-12-18T03:26:31;1;1;
70436;PMS5003;57877;39.750;-104.894;2022-12-18T03:28:59;0;0;
70436;PMS5003;57877;39.750;-104.894;2022-12-18T03:31:22;1;0;
70436;PMS5003;57877;39.750;-104.894;2022-12-18T03:33:47;0;0;
70436;PMS5003;57877;39.750;-104.894;2022-12-18T03:36:12;1;1;
70436;PMS5003;57877;39.750;-104.894;2022-12-18T03:38:37;0;0;
70436;PMS5003;57877;39.750;-104.894;2022-12-18T03:41:04;1;0;
70436;PMS5003;57877;39.750;-104.894;2022-12-18T03:43:31;2;2;
70436;PMS5003;57877;39.750;-104.894;2022-12-18T03:45:53;3;2;
70436;PMS5003;57877;39.750;-104.894;2022-12-18T03:48:25;3;2;
70436;PMS5003;57877;39.750;-104.894;2022-12-18T03:50:45;1;1;
70436;PMS5003;57877;39.750;-104.894;2022-12-18T03:53:11;0;0;
70436;PMS5003;57877;39.750;-104.894;2022-12-18T03:55:34;1;1;
70436;PMS5003;57877;39.750;-104.894;2022-12-18T03:58:00;5;4;
70436;PMS5003;57877;39.750;-104.894;2022-12-18T04:00:24;8;8;
70436;PMS5003;57877;39.750;-104.894;2022-12-18T04:02:51;3;3;
70436;PMS5003;57877;39.750;-104.894;2022-12-18T04:05:14;4;3;
70436;PMS5003;57877;39.750;-104.894;2022-12-18T04:07:39;4;4;
70436;PMS5003;57877;39.750;-104.894;2022-12-18T04:10:05;4;4;
70436;PMS5003;57877;39.750;-104.894;2022-12-18T04:12:30;8;7;
70436;PMS5003;57877;39.750;-104.894;2022-12-18T04:14:55;3;3;
70436;PMS5003;57877;39.750;-104.894;2022-12-18T04:17:20;6;5;
70436;PMS5003;57877;39.750;-104.894;2022-12-18T04:19:46;4;4;
70436;PMS5003;57877;39.750;-104.894;2022-12-18T04:24:36;5;4;
70436;PMS5003;57877;39.750;-104.894;2022-12-18T04:27:01;5;5;
70436;PMS5003;57877;39.750;-104.894;2022-12-18T04:29:26;4;4;
70436;PMS5003;57877;39.750;-104.894;2022-12-18T04:31:52;2;2;
70436;PMS5003;57877;39.750;-104.894;2022-12-18T04:34:17;5;5;
70436;PMS5003;57877;39.750;-104.894;2022-12-18T04:36:42;2;2;
70436;PMS5003;57877;39.750;-104.894;2022-12-18T04:39:08;3;3;
70436;PMS5003;57877;39.750;-104.894;2022-12-18T04:41:32;4;4;
70436;PMS5003;57877;39.750;-104.894;2022-12-18T04:43:58;8;7;
70436;PMS5003;57877;39.750;-104.894;2022-12-18T04:46:23;5;4;
70436;PMS5003;57877;39.750;-104.894;2022-12-18T04:48:48;5;4;
70436;PMS5003;57877;39.750;-104.894;2022-12-18T04:51:14;3;3;
70436;PMS5003;57877;39.750;-104.894;2022-12-18T04:53:39;2;1;
70436;PMS5003;57877;39.750;-104.894;2022-12-18T04:56:05;2;1;
70436;PMS5003;57877;39.750;-104.894;2022-12-18T04:58:29;2;2;
70436;PMS5003;57877;39.750;-104.894;2022-12-18T05:00:54;3;2;
70436;PMS5003;57877;39.750;-104.894;2022-12-18T05:03:20;0;0;
70436;PMS5003;57877;39.750;-104.894;2022-12-18T05:05:45;2;2;
70436;PMS5003;57877;39.750;-104.894;2022-12-18T05:08:10;3;3;
70436;PMS5003;57877;39.750;-104.894;2022-12-18T05:10:35;2;2;
70436;PMS5003;57877;39.750;-104.894;2022-12-18T05:13:01;2;1;
70436;PMS5003;57877;39.750;-104.894;2022-12-18T05:15:27;5;4;
70436;PMS5003;57877;39.750;-104.894;2022-12-18T05:17:51;5;4;
70436;PMS5003;57877;39.750;-104.894;2022-12-18T05:20:16;3;2;
70436;PMS5003;57877;39.750;-104.894;2022-12-18T05:22:42;5;5;
70436;PMS5003;57877;39.750;-104.894;2022-12-18T05:25:07;4;4;
70436;PMS5003;57877;39.750;-104.894;2022-12-18T05:27:32;2;1;
70436;PMS5003;57877;39.750;-104.894;2022-12-18T05:29:57;4;4;
70436;PMS5003;57877;39.750;-104.894;2022-12-18T05:32:22;3;1;
70436;PMS5003;57877;39.750;-104.894;2022-12-18T05:34:48;2;2;
70436;PMS5003;57877;39.750;-104.894;2022-12-18T05:37:13;3;2;
70436;PMS5003;57877;39.750;-104.894;2022-12-18T05:39:38;2;2;
70436;PMS5003;57877;39.750;-104.894;2022-12-18T05:42:03;3;2;
70436;PMS5003;57877;39.750;-104.894;2022-12-18T05:44:28;2;2;
70436;PMS5003;57877;39.750;-104.894;2022-12-18T05:46:54;3;1;
70436;PMS5003;57877;39.750;-104.894;2022-12-18T05:49:19;0;0;
70436;PMS5003;57877;39.750;-104.894;2022-12-18T05:51:44;3;3;
70436;PMS5003;57877;39.750;-104.894;2022-12-18T05:54:09;3;3;
70436;PMS5003;57877;39.750;-104.894;2022-12-18T05:56:35;2;2;
70436;PMS5003;57877;39.750;-104.894;2022-12-18T05:59:00;8;8;
70436;PMS5003;57877;39.750;-104.894;2022-12-18T06:01:26;10;9;
70436;PMS5003;57877;39.750;-104.894;2022-12-18T06:03:51;9;7;
70436;PMS5003;57877;39.750;-104.894;2022-12-18T06:06:17;9;8;
70436;PMS5003;57877;39.750;-104.894;2022-12-18T06:08:41;6;5;
70436;PMS5003;57877;39.750;-104.894;2022-12-18T06:11:06;6;6;
70436;PMS5003;57877;39.750;-104.894;2022-12-18T06:13:32;5;5;
70436;PMS5003;57877;39.750;-104.894;2022-12-18T06:15:57;5;4;
70436;PMS5003;57877;39.750;-104.894;2022-12-18T06:18:22;7;7;
70436;PMS5003;57877;39.750;-104.894;2022-12-18T06:23:13;6;5;
70436;PMS5003;57877;39.750;-104.894;2022-12-18T06:25:38;6;5;
70436;PMS5003;57877;39.750;-104.894;2022-12-18T06:28:03;4;4;
70436;PMS5003;57877;39.750;-104.894;2022-12-18T06:30:28;2;2;
70436;PMS5003;57877;39.750;-104.894;2022-12-18T06:32:54;1;0;
70436;PMS5003;57877;39.750;-104.894;2022-12-18T06:35:19;1;1;
70436;PMS5003;57877;39.750;-104.894;2022-12-18T06:37:45;0;0;
70436;PMS5003;57877;39.750;-104.894;2022-12-18T06:40:10;0;0;
70436;PMS5003;57877;39.750;-104.894;2022-12-18T06:42:35;0;0;
70436;PMS5003;57877;39.750;-104.894;2022-12-18T06:45:00;1;0;
70436;PMS5003;57877;39.750;-104.894;2022-12-18T06:47:26;1;0;
70436;PMS5003;57877;39.750;-104.894;2022-12-18T06:49:52;1;1;
70436;PMS5003;57877;39.750;-104.894;2022-12-18T06:52:16;0;0;
70436;PMS5003;57877;39.750;-104.894;2022-12-18T06:54:41;0;0;
70436;PMS5003;57877;39.750;-104.894;2022-12-18T06:57:06;0;0;
70436;PMS5003;57877;39.750;-104.894;2022-12-18T06:59:32;0;0;
70436;PMS5003;57877;39.750;-104.894;2022-12-18T07:01:57;0;0;
70436;PMS5003;57877;39.750;-104.894;2022-12-18T07:04:27;0;0;
70436;PMS5003;57877;39.750;-104.894;2022-12-18T07:06:48;0;0;
70436;PMS5003;57877;39.750;-104.894;2022-12-18T07:09:13;0;0;
70436;PMS5003;57877;39.750;-104.894;2022-12-18T07:11:38;0;0;
70436;PMS5003;57877;39.750;-104.894;2022-12-18T07:14:04;0;0;
70436;PMS5003;57877;39.750;-104.894;2022-12-18T07:16:29;0;0;
70436;PMS5003;57877;39.750;-104.894;2022-12-18T07:18:54;0;0;
70436;PMS5003;57877;39.750;-104.894;2022-12-18T07:21:19;0;0;
70436;PMS5003;57877;39.750;-104.894;2022-12-18T07:23:45;0;0;
70436;PMS5003;57877;39.750;-104.894;2022-12-18T07:26:11;0;0;
70436;PMS5003;57877;39.750;-104.894;2022-12-18T07:28:35;0;0;
70436;PMS5003;57877;39.750;-104.894;2022-12-18T07:31:02;0;0;
70436;PMS5003;57877;39.750;-104.894;2022-12-18T07:33:26;0;0;
70436;PMS5003;57877;39.750;-104.894;2022-12-18T07:35:51;0;0;
70436;PMS5003;57877;39.750;-104.894;2022-12-18T07:38:16;0;0;
70436;PMS5003;57877;39.750;-104.894;2022-12-18T07:40:41;0;0;
70436;PMS5003;57877;39.750;-104.894;2022-12-18T07:43:07;0;0;
70436;PMS5003;57877;39.750;-104.894;2022-12-18T07:45:32;0;0;
70436;PMS5003;57877;39.750;-104.894;2022-12-18T07:47:57;0;0;
70436;PMS5003;57877;39.750;-104.894;2022-12-18T07:50:22;0;0;
70436;PMS5003;57877;39.750;-104.894;2022-12-18T07:52:48;0;0;
70436;PMS5003;57877;39.750;-104.894;2022-12-18T07:55:13;0;0;
70436;PMS5003;57877;39.750;-104.894;2022-12-18T07:57:38;0;0;
70436;PMS5003;57877;39.750;-104.894;2022-12-18T08:00:04;0;0;
70436;PMS5003;57877;39.750;-104.894;2022-12-18T08:02:30;0;0;
70436;PMS5003;57877;39.750;-104.894;2022-12-18T08:04:54;0;0;
70436;PMS5003;57877;39.750;-104.894;2022-12-18T08:07:19;0;0;
70436;PMS5003;57877;39.750;-104.894;2022-12-18T08:09:44;0;0;
70436;PMS5003;57877;39.750;-104.894;2022-12-18T08:12:10;0;0;
70436;PMS5003;57877;39.750;-104.894;2022-12-18T08:14:35;0;0;
70436;PMS5003;57877;39.750;-104.894;2022-12-18T08:17:00;0;0;
70436;PMS5003;57877;39.750;-104.894;2022-12-18T08:19:26;0;0;
70436;PMS5003;57877;39.750;-104.894;2022-12-18T08:21:51;0;0;
70436;PMS5003;57877;39.750;-104.894;2022-12-18T08:24:16;0;0;
70436;PMS5003;57877;39.750;-104.894;2022-12-18T08:26:41;0;0;
70436;PMS5003;57877;39.750;-104.894;2022-12-18T08:29:06;0;0;
70436;PMS5003;57877;39.750;-104.894;2022-12-18T08:31:32;0;0;
70436;PMS5003;57877;39.750;-104.894;2022-12-18T08:33:57;0;0;
70436;PMS5003;57877;39.750;-104.894;2022-12-18T08:36:22;0;0;
70436;PMS5003;57877;39.750;-104.894;2022-12-18T08:38:48;0;0;
70436;PMS5003;57877;39.750;-104.894;2022-12-18T08:41:13;0;0;
70436;PMS5003;57877;39.750;-104.894;2022-12-18T08:43:38;0;0;
70436;PMS5003;57877;39.750;-104.894;2022-12-18T08:46:03;0;0;
70436;PMS5003;57877;39.750;-104.894;2022-12-18T08:48:29;0;0;
70436;PMS5003;57877;39.750;-104.894;2022-12-18T08:50:54;0;0;
70436;PMS5003;57877;39.750;-104.894;2022-12-18T08:53:19;0;0;
70436;PMS5003;57877;39.750;-104.894;2022-12-18T08:55:44;0;0;
70436;PMS5003;57877;39.750;-104.894;2022-12-18T08:58:10;0;0;
70436;PMS5003;57877;39.750;-104.894;2022-12-18T09:00:35;0;0;
70436;PMS5003;57877;39.750;-104.894;2022-12-18T09:03:00;0;0;
70436;PMS5003;57877;39.750;-104.894;2022-12-18T09:05:25;0;0;
70436;PMS5003;57877;39.750;-104.894;2022-12-18T09:07:51;0;0;
70436;PMS5003;57877;39.750;-104.894;2022-12-18T09:10:16;0;0;
70436;PMS5003;57877;39.750;-104.894;2022-12-18T09:12:41;0;0;
70436;PMS5003;57877;39.750;-104.894;2022-12-18T09:15:07;0;0;
70436;PMS5003;57877;39.750;-104.894;2022-12-18T09:17:32;0;0;
70436;PMS5003;57877;39.750;-104.894;2022-12-18T09:19:57;0;0;
70436;PMS5003;57877;39.750;-104.894;2022-12-18T09:22:22;0;0;
70436;PMS5003;57877;39.750;-104.894;2022-12-18T09:24:48;0;0;
70436;PMS5003;57877;39.750;-104.894;2022-12-18T09:27:13;0;0;
70436;PMS5003;57877;39.750;-104.894;2022-12-18T09:29:38;0;0;
70436;PMS5003;57877;39.750;-104.894;2022-12-18T09:32:03;0;0;
70436;PMS5003;57877;39.750;-104.894;2022-12-18T09:34:29;0;0;
70436;PMS5003;57877;39.750;-104.894;2022-12-18T09:36:54;0;0;
70436;PMS5003;57877;39.750;-104.894;2022-12-18T09:39:19;2;1;
70436;PMS5003;57877;39.750;-104.894;2022-12-18T09:41:45;0;0;
70436;PMS5003;57877;39.750;-104.894;2022-12-18T09:44:12;0;0;
70436;PMS5003;57877;39.750;-104.894;2022-12-18T09:46:36;0;0;
70436;PMS5003;57877;39.750;-104.894;2022-12-18T09:49:00;0;0;
70436;PMS5003;57877;39.750;-104.894;2022-12-18T09:51:26;0;0;
70436;PMS5003;57877;39.750;-104.894;2022-12-18T09:53:52;0;0;
70436;PMS5003;57877;39.750;-104.894;2022-12-18T09:56:16;0;0;
70436;PMS5003;57877;39.750;-104.894;2022-12-18T09:58:41;0;0;
70436;PMS5003;57877;39.750;-104.894;2022-12-18T10:01:09;0;0;
70436;PMS5003;57877;39.750;-104.894;2022-12-18T10:03:31;0;0;
70436;PMS5003;57877;39.750;-104.894;2022-12-18T10:05:59;0;0;
70436;PMS5003;57877;39.750;-104.894;2022-12-18T10:08:24;0;0;
70436;PMS5003;57877;39.750;-104.894;2022-12-18T10:10:48;0;0;
70436;PMS5003;57877;39.750;-104.894;2022-12-18T10:13:16;0;0;
70436;PMS5003;57877;39.750;-104.894;2022-12-18T10:15:39;0;0;
70436;PMS5003;57877;39.750;-104.894;2022-12-18T10:18:06;0;0;
70436;PMS5003;57877;39.750;-104.894;2022-12-18T10:20:32;0;0;
70436;PMS5003;57877;39.750;-104.894;2022-12-18T10:22:55;0;0;
70436;PMS5003;57877;39.750;-104.894;2022-12-18T10:25:21;0;0;
70436;PMS5003;57877;39.750;-104.894;2022-12-18T10:27:44;0;0;
70436;PMS5003;57877;39.750;-104.894;2022-12-18T10:30:12;0;0;
70436;PMS5003;57877;39.750;-104.894;2022-12-18T10:32:34;0;0;
70436;PMS5003;57877;39.750;-104.894;2022-12-18T10:35:00;0;0;
70436;PMS5003;57877;39.750;-104.894;2022-12-18T10:37:26;0;0;
70436;PMS5003;57877;39.750;-104.894;2022-12-18T10:42:16;0;0;
70436;PMS5003;57877;39.750;-104.894;2022-12-18T10:44:41;0;0;
70436;PMS5003;57877;39.750;-104.894;2022-12-18T10:47:06;0;0;
70436;PMS5003;57877;39.750;-104.894;2022-12-18T10:49:32;0;0;
70436;PMS5003;57877;39.750;-104.894;2022-12-18T10:54:22;0;0;
70436;PMS5003;57877;39.750;-104.894;2022-12-18T10:56:47;1;0;
70436;PMS5003;57877;39.750;-104.894;2022-12-18T10:59:13;0;0;
70436;PMS5003;57877;39.750;-104.894;2022-12-18T11:04:07;0;0;
70436;PMS5003;57877;39.750;-104.894;2022-12-18T11:06:28;0;0;
70436;PMS5003;57877;39.750;-104.894;2022-12-18T11:08:57;0;0;
70436;PMS5003;57877;39.750;-104.894;2022-12-18T11:11:19;0;0;
70436;PMS5003;57877;39.750;-104.894;2022-12-18T11:13:48;0;0;
70436;PMS5003;57877;39.750;-104.894;2022-12-18T11:18:34;0;0;
70436;PMS5003;57877;39.750;-104.894;2022-12-18T11:21:00;0;0;
70436;PMS5003;57877;39.750;-104.894;2022-12-18T11:23:25;0;0;
70436;PMS5003;57877;39.750;-104.894;2022-12-18T11:25:51;0;0;
70436;PMS5003;57877;39.750;-104.894;2022-12-18T11:30:41;0;0;
70436;PMS5003;57877;39.750;-104.894;2022-12-18T11:33:08;0;0;
70436;PMS5003;57877;39.750;-104.894;2022-12-18T11:35:35;0;0;
70436;PMS5003;57877;39.750;-104.894;2022-12-18T11:37:57;0;0;
70436;PMS5003;57877;39.750;-104.894;2022-12-18T11:40:23;0;0;
70436;PMS5003;57877;39.750;-104.894;2022-12-18T11:42:50;0;0;
70436;PMS5003;57877;39.750;-104.894;2022-12-18T11:47:38;0;0;
70436;PMS5003;57877;39.750;-104.894;2022-12-18T11:50:03;0;0;
70436;PMS5003;57877;39.750;-104.894;2022-12-18T11:52:30;0;0;
70436;PMS5003;57877;39.750;-104.894;2022-12-18T11:54:53;0;0;
70436;PMS5003;57877;39.750;-104.894;2022-12-18T11:57:22;0;0;
70436;PMS5003;57877;39.750;-104.894;2022-12-18T11:59:46;0;0;
70436;PMS5003;57877;39.750;-104.894;2022-12-18T12:02:15;0;0;
70436;PMS5003;57877;39.750;-104.894;2022-12-18T12:04:38;0;0;
70436;PMS5003;57877;39.750;-104.894;2022-12-18T12:07:02;0;0;
70436;PMS5003;57877;39.750;-104.894;2022-12-18T12:09:26;0;0;
70436;PMS5003;57877;39.750;-104.894;2022-12-18T12:11:53;0;0;
70436;PMS5003;57877;39.750;-104.894;2022-12-18T12:14:21;0;0;
70436;PMS5003;57877;39.750;-104.894;2022-12-18T12:16:43;2;0;
70436;PMS5003;57877;39.750;-104.894;2022-12-18T12:19:10;3;3;
70436;PMS5003;57877;39.750;-104.894;2022-12-18T12:21:34;0;0;
70436;PMS5003;57877;39.750;-104.894;2022-12-18T12:23:58;4;4;
70436;PMS5003;57877;39.750;-104.894;2022-12-18T12:26:23;0;0;
70436;PMS5003;57877;39.750;-104.894;2022-12-18T12:28:51;0;0;
70436;PMS5003;57877;39.750;-104.894;2022-12-18T12:31:13;0;0;
70436;PMS5003;57877;39.750;-104.894;2022-12-18T12:33:39;0;0;
70436;PMS5003;57877;39.750;-104.894;2022-12-18T12:36:04;0;0;
70436;PMS5003;57877;39.750;-104.894;2022-12-18T12:38:28;0;0;
70436;PMS5003;57877;39.750;-104.894;2022-12-18T12:40:54;0;0;
70436;PMS5003;57877;39.750;-104.894;2022-12-18T12:43:21;0;0;
70436;PMS5003;57877;39.750;-104.894;2022-12-18T12:45:46;0;0;
70436;PMS5003;57877;39.750;-104.894;2022-12-18T12:48:10;0;0;
70436;PMS5003;57877;39.750;-104.894;2022-12-18T12:50:34;0;0;
70436;PMS5003;57877;39.750;-104.894;2022-12-18T12:52:59;0;0;
70436;PMS5003;57877;39.750;-104.894;2022-12-18T12:55:25;0;0;
70436;PMS5003;57877;39.750;-104.894;2022-12-18T12:57:53;0;0;
70436;PMS5003;57877;39.750;-104.894;2022-12-18T13:00:15;0;0;
70436;PMS5003;57877;39.750;-104.894;2022-12-18T13:02:42;0;0;
70436;PMS5003;57877;39.750;-104.894;2022-12-18T13:05:08;0;0;
70436;PMS5003;57877;39.750;-104.894;2022-12-18T13:07:32;0;0;
70436;PMS5003;57877;39.750;-104.894;2022-12-18T13:12:21;0;0;
70436;PMS5003;57877;39.750;-104.894;2022-12-18T13:14:47;0;0;
70436;PMS5003;57877;39.750;-104.894;2022-12-18T13:19:37;0;0;
70436;PMS5003;57877;39.750;-104.894;2022-12-18T13:22:02;0;0;
70436;PMS5003;57877;39.750;-104.894;2022-12-18T13:24:28;0;0;
70436;PMS5003;57877;39.750;-104.894;2022-12-18T13:26:53;0;0;
70436;PMS5003;57877;39.750;-104.894;2022-12-18T13:34:12;0;0;
70436;PMS5003;57877;39.750;-104.894;2022-12-18T13:36:34;0;0;
70436;PMS5003;57877;39.750;-104.894;2022-12-18T13:41:25;0;0;
70436;PMS5003;57877;39.750;-104.894;2022-12-18T13:43:49;0;0;
70436;PMS5003;57877;39.750;-104.894;2022-12-18T13:46:19;0;0;
70436;PMS5003;57877;39.750;-104.894;2022-12-18T13:48:40;0;0;
70436;PMS5003;57877;39.750;-104.894;2022-12-18T13:51:06;0;0;
70436;PMS5003;57877;39.750;-104.894;2022-12-18T13:53:32;0;0;
70436;PMS5003;57877;39.750;-104.894;2022-12-18T13:55:55;0;0;
70436;PMS5003;57877;39.750;-104.894;2022-12-18T13:58:21;0;0;
70436;PMS5003;57877;39.750;-104.894;2022-12-18T14:00:46;0;0;
70436;PMS5003;57877;39.750;-104.894;2022-12-18T14:05:36;0;0;
70436;PMS5003;57877;39.750;-104.894;2022-12-18T14:08:03;0;0;
70436;PMS5003;57877;39.750;-104.894;2022-12-18T14:10:27;0;0;
70436;PMS5003;57877;39.750;-104.894;2022-12-18T14:12:52;0;0;
70436;PMS5003;57877;39.750;-104.894;2022-12-18T14:15:20;0;0;
70436;PMS5003;57877;39.750;-104.894;2022-12-18T14:17:42;0;0;
70436;PMS5003;57877;39.750;-104.894;2022-12-18T14:20:12;0;0;
70436;PMS5003;57877;39.750;-104.894;2022-12-18T14:22:33;0;0;
70436;PMS5003;57877;39.750;-104.894;2022-12-18T14:27:25;0;0;
70436;PMS5003;57877;39.750;-104.894;2022-12-18T14:29:49;0;0;
70436;PMS5003;57877;39.750;-104.894;2022-12-18T14:32:15;0;0;
70436;PMS5003;57877;39.750;-104.894;2022-12-18T14:34:39;0;0;
70436;PMS5003;57877;39.750;-104.894;2022-12-18T14:37:05;0;0;
70436;PMS5003;57877;39.750;-104.894;2022-12-18T14:39:30;0;0;
70436;PMS5003;57877;39.750;-104.894;2022-12-18T14:41:55;0;0;
70436;PMS5003;57877;39.750;-104.894;2022-12-18T14:44:20;0;0;
70436;PMS5003;57877;39.750;-104.894;2022-12-18T14:46:46;0;0;
70436;PMS5003;57877;39.750;-104.894;2022-12-18T14:51:36;0;0;
70436;PMS5003;57877;39.750;-104.894;2022-12-18T14:54:02;0;0;
70436;PMS5003;57877;39.750;-104.894;2022-12-18T14:56:27;0;0;
70436;PMS5003;57877;39.750;-104.894;2022-12-18T14:58:53;0;0;
70436;PMS5003;57877;39.750;-104.894;2022-12-18T15:01:21;0;0;
70436;PMS5003;57877;39.750;-104.894;2022-12-18T15:03:43;0;0;
70436;PMS5003;57877;39.750;-104.894;2022-12-18T15:08:34;0;0;
70436;PMS5003;57877;39.750;-104.894;2022-12-18T15:10:58;0;0;
70436;PMS5003;57877;39.750;-104.894;2022-12-18T15:13:23;0;0;
70436;PMS5003;57877;39.750;-104.894;2022-12-18T15:15:48;0;0;
70436;PMS5003;57877;39.750;-104.894;2022-12-18T15:18:14;0;0;
70436;PMS5003;57877;39.750;-104.894;2022-12-18T15:20:40;0;0;
70436;PMS5003;57877;39.750;-104.894;2022-12-18T15:23:04;0;0;
70436;PMS5003;57877;39.750;-104.894;2022-12-18T15:25:31;0;0;
70436;PMS5003;57877;39.750;-104.894;2022-12-18T15:27:55;0;0;
70436;PMS5003;57877;39.750;-104.894;2022-12-18T15:30:21;0;0;
70436;PMS5003;57877;39.750;-104.894;2022-12-18T15:32:45;0;0;
70436;PMS5003;57877;39.750;-104.894;2022-12-18T15:35:12;0;0;
70436;PMS5003;57877;39.750;-104.894;2022-12-18T15:37:35;0;0;
70436;PMS5003;57877;39.750;-104.894;2022-12-18T15:40:01;0;0;
70436;PMS5003;57877;39.750;-104.894;2022-12-18T15:42:26;0;0;
70436;PMS5003;57877;39.750;-104.894;2022-12-18T15:44:51;0;0;
70436;PMS5003;57877;39.750;-104.894;2022-12-18T15:47:16;0;0;
70436;PMS5003;57877;39.750;-104.894;2022-12-18T15:49:41;0;0;
70436;PMS5003;57877;39.750;-104.894;2022-12-18T15:52:08;0;0;
70436;PMS5003;57877;39.750;-104.894;2022-12-18T15:54:32;0;0;
70436;PMS5003;57877;39.750;-104.894;2022-12-18T15:56:57;0;0;
70436;PMS5003;57877;39.750;-104.894;2022-12-18T15:59:22;0;0;
70436;PMS5003;57877;39.750;-104.894;2022-12-18T16:01:48;0;0;
70436;PMS5003;57877;39.750;-104.894;2022-12-18T16:04:13;0;0;
70436;PMS5003;57877;39.750;-104.894;2022-12-18T16:06:37;0;0;
70436;PMS5003;57877;39.750;-104.894;2022-12-18T16:09:04;0;0;
70436;PMS5003;57877;39.750;-104.894;2022-12-18T16:11:28;0;0;
70436;PMS5003;57877;39.750;-104.894;2022-12-18T16:13:53;0;0;
70436;PMS5003;57877;39.750;-104.894;2022-12-18T16:16:18;0;0;
70436;PMS5003;57877;39.750;-104.894;2022-12-18T16:18:43;0;0;
70436;PMS5003;57877;39.750;-104.894;2022-12-18T16:21:08;5;5;
70436;PMS5003;57877;39.750;-104.894;2022-12-18T16:23:33;4;3;
70436;PMS5003;57877;39.750;-104.894;2022-12-18T16:25:59;3;3;
70436;PMS5003;57877;39.750;-104.894;2022-12-18T16:28:24;3;3;
70436;PMS5003;57877;39.750;-104.894;2022-12-18T16:30:49;2;2;
70436;PMS5003;57877;39.750;-104.894;2022-12-18T16:33:14;1;1;